sensor_id;sensor_type;location;lat;lon;timestamp;temperature;humidity
16267;DHT22;8241;48.786;9.250;2022-12-18T00:02:27;-6.60;99.90
16267;DHT22;8241;48.786;9.250;2022-12-18T00:04:55;-6.60;99.90
16267;DHT22;8241;48.786;9.250;2022-12-18T00:07:22;-6.70;99.90
16267;DHT22;8241;48.786;9.250;2022-12-18T00:09:49;-6.50;99.90
16267;DHT22;8241;48.786;9.250;2022-12-18T00:12:16;-6.70;99.90
16267;DHT22;8241;48.786;9.250;2022-12-18T00:14:43;-6.60;99.90
16267;DHT22;8241;48.786;9.250;2022-12-18T00:17:10;-6.50;99.90
16267;DHT22;8241;48.786;9.250;2022-12-18T00:19:37;-6.60;99.90
16267;DHT22;8241;48.786;9.250;2022-12-18T00:22:06;-6.60;99.90
16267;DHT22;8241;48.786;9.250;2022-12-18T00:24:33;-6.30;99.90
16267;DHT22;8241;48.786;9.250;2022-12-18T00:27:00;-6.40;99.90
16267;DHT22;8241;48.786;9.250;2022-12-18T00:29:27;-6.50;99.90
16267;DHT22;8241;48.786;9.250;2022-12-18T00:31:54;-6.40;99.90
16267;DHT22;8241;48.786;9.250;2022-12-18T00:34:21;-6.30;99.90
16267;DHT22;8241;48.786;9.250;2022-12-18T00:36:48;-6.40;99.90
16267;DHT22;8241;48.786;9.250;2022-12-18T00:39:16;-6.50;99.90
16267;DHT22;8241;48.786;9.250;2022-12-18T00:41:44;-6.70;99.90
16267;DHT22;8241;48.786;9.250;2022-12-18T00:44:28;-6.60;99.90
16267;DHT22;8241;48.786;9.250;2022-12-18T00:46:56;-6.70;99.90
16267;DHT22;8241;48.786;9.250;2022-12-18T00:49:23;-6.70;99.90
16267;DHT22;8241;48.786;9.250;2022-12-18T00:51:50;-6.70;99.90
16267;DHT22;8241;48.786;9.250;2022-12-18T00:54:19;-6.70;99.90
16267;DHT22;8241;48.786;9.250;2022-12-18T00:56:46;-6.60;99.90
16267;DHT22;8241;48.786;9.250;2022-12-18T00:59:22;-6.60;99.90
16267;DHT22;8241;48.786;9.250;2022-12-18T01:01:57;-6.60;99.90
16267;DHT22;8241;48.786;9.250;2022-12-18T01:04:24;-6.70;99.90
16267;DHT22;8241;48.786;9.250;2022-12-18T01:06:51;-6.60;99.90
16267;DHT22;8241;48.786;9.250;2022-12-18T01:09:19;-6.60;99.90
16267;DHT22;8241;48.786;9.250;2022-12-18T01:11:46;-6.80;99.90
16267;DHT22;8241;48.786;9.250;2022-12-18T01:14:13;-6.70;99.90
16267;DHT22;8241;48.786;9.250;2022-12-18T01:16:40;-6.70;99.90
16267;DHT22;8241;48.786;9.250;2022-12-18T01:19:07;-6.80;99.90
16267;DHT22;8241;48.786;9.250;2022-12-18T01:21:35;-6.80;99.90
16267;DHT22;8241;48.786;9.250;2022-12-18T01:24:04;-6.90;99.90
16267;DHT22;8241;48.786;9.250;2022-12-18T01:26:33;-6.90;99.90
16267;DHT22;8241;48.786;9.250;2022-12-18T01:29:00;-6.80;99.90
16267;DHT22;8241;48.786;9.250;2022-12-18T01:31:30;-6.90;99.90
16267;DHT22;8241;48.786;9.250;2022-12-18T01:33:59;-7.00;99.90
16267;DHT22;8241;48.786;9.250;2022-12-18T01:36:29;-7.00;99.90
16267;DHT22;8241;48.786;9.250;2022-12-18T01:38:56;-7.00;99.90
16267;DHT22;8241;48.786;9.250;2022-12-18T01:41:28;-6.90;99.90
16267;DHT22;8241;48.786;9.250;2022-12-18T01:44:52;-6.90;99.90
16267;DHT22;8241;48.786;9.250;2022-12-18T01:47:22;-6.90;99.90
16267;DHT22;8241;48.786;9.250;2022-12-18T01:49:50;-6.70;99.90
16267;DHT22;8241;48.786;9.250;2022-12-18T01:52:29;-6.60;99.90
16267;DHT22;8241;48.786;9.250;2022-12-18T01:54:57;-6.70;99.90
16267;DHT22;8241;48.786;9.250;2022-12-18T01:57:30;-6.70;99.90
16267;DHT22;8241;48.786;9.250;2022-12-18T02:00:04;-6.70;99.90
16267;DHT22;8241;48.786;9.250;2022-12-18T02:02:43;-6.80;99.90
16267;DHT22;8241;48.786;9.250;2022-12-18T02:05:13;-6.90;99.90
16267;DHT22;8241;48.786;9.250;2022-12-18T02:07:49;-6.80;99.90
16267;DHT22;8241;48.786;9.250;2022-12-18T02:10:26;-6.80;99.90
16267;DHT22;8241;48.786;9.250;2022-12-18T02:13:00;-6.90;99.90
16267;DHT22;8241;48.786;9.250;2022-12-18T02:15:37;-7.00;99.90
16267;DHT22;8241;48.786;9.250;2022-12-18T02:18:11;-7.00;99.90
16267;DHT22;8241;48.786;9.250;2022-12-18T02:20:44;-7.00;99.90
16267;DHT22;8241;48.786;9.250;2022-12-18T02:23:24;-7.00;99.90
16267;DHT22;8241;48.786;9.250;2022-12-18T02:26:44;-7.00;99.90
16267;DHT22;8241;48.786;9.250;2022-12-18T02:29:36;-6.90;99.90
16267;DHT22;8241;48.786;9.250;2022-12-18T02:33:11;-6.70;99.90
16267;DHT22;8241;48.786;9.250;2022-12-18T02:35:33;-6.60;99.90
16267;DHT22;8241;48.786;9.250;2022-12-18T02:38:02;-6.50;99.90
16267;DHT22;8241;48.786;9.250;2022-12-18T02:40:35;-6.70;99.90
16267;DHT22;8241;48.786;9.250;2022-12-18T02:43:07;-6.70;99.90
16267;DHT22;8241;48.786;9.250;2022-12-18T02:45:52;-6.70;99.90
16267;DHT22;8241;48.786;9.250;2022-12-18T02:48:26;-6.70;99.90
16267;DHT22;8241;48.786;9.250;2022-12-18T02:51:01;-6.60;99.90
16267;DHT22;8241;48.786;9.250;2022-12-18T02:53:36;-6.60;99.90
16267;DHT22;8241;48.786;9.250;2022-12-18T02:56:07;-6.60;99.90
16267;DHT22;8241;48.786;9.250;2022-12-18T02:58:45;-6.60;99.90
16267;DHT22;8241;48.786;9.250;2022-12-18T03:01:30;-6.60;99.90
16267;DHT22;8241;48.786;9.250;2022-12-18T03:04:02;-6.60;99.90
16267;DHT22;8241;48.786;9.250;2022-12-18T03:06:35;-6.70;99.90
16267;DHT22;8241;48.786;9.250;2022-12-18T03:09:08;-6.70;99.90
16267;DHT22;8241;48.786;9.250;2022-12-18T03:11:40;-6.70;99.90
16267;DHT22;8241;48.786;9.250;2022-12-18T03:14:25;-6.70;99.90
16267;DHT22;8241;48.786;9.250;2022-12-18T03:16:55;-6.60;99.90
16267;DHT22;8241;48.786;9.250;2022-12-18T03:19:27;-6.40;99.90
16267;DHT22;8241;48.786;9.250;2022-12-18T03:21:59;-6.40;99.90
16267;DHT22;8241;48.786;9.250;2022-12-18T03:24:33;-6.50;99.90
16267;DHT22;8241;48.786;9.250;2022-12-18T03:27:08;-6.60;99.90
16267;DHT22;8241;48.786;9.250;2022-12-18T03:29:42;-6.60;99.90
16267;DHT22;8241;48.786;9.250;2022-12-18T03:32:18;-6.70;99.90
16267;DHT22;8241;48.786;9.250;2022-12-18T03:34:49;-6.70;99.90
16267;DHT22;8241;48.786;9.250;2022-12-18T03:37:20;-6.80;99.90
16267;DHT22;8241;48.786;9.250;2022-12-18T03:39:47;-6.90;99.90
16267;DHT22;8241;48.786;9.250;2022-12-18T03:42:18;-6.90;99.90
16267;DHT22;8241;48.786;9.250;2022-12-18T03:44:56;-6.90;99.90
16267;DHT22;8241;48.786;9.250;2022-12-18T03:47:28;-6.90;99.90
16267;DHT22;8241;48.786;9.250;2022-12-18T03:50:05;-6.90;99.90
16267;DHT22;8241;48.786;9.250;2022-12-18T03:52:37;-7.00;99.90
16267;DHT22;8241;48.786;9.250;2022-12-18T03:55:07;-6.90;99.90
16267;DHT22;8241;48.786;9.250;2022-12-18T03:57:37;-6.90;99.90
16267;DHT22;8241;48.786;9.250;2022-12-18T04:00:09;-6.90;99.90
16267;DHT22;8241;48.786;9.250;2022-12-18T04:02:42;-7.00;99.90
16267;DHT22;8241;48.786;9.250;2022-12-18T04:05:12;-7.00;99.90
16267;DHT22;8241;48.786;9.250;2022-12-18T04:07:41;-7.00;99.90
16267;DHT22;8241;48.786;9.250;2022-12-18T04:10:10;-7.00;99.90
16267;DHT22;8241;48.786;9.250;2022-12-18T04:12:40;-7.00;99.90
16267;DHT22;8241;48.786;9.250;2022-12-18T04:15:12;-7.10;99.90
16267;DHT22;8241;48.786;9.250;2022-12-18T04:17:46;-7.20;99.90
16267;DHT22;8241;48.786;9.250;2022-12-18T04:20:16;-7.30;99.90
16267;DHT22;8241;48.786;9.250;2022-12-18T04:22:44;-7.40;99.90
16267;DHT22;8241;48.786;9.250;2022-12-18T04:25:11;-7.40;99.90
16267;DHT22;8241;48.786;9.250;2022-12-18T04:27:46;-7.50;99.90
16267;DHT22;8241;48.786;9.250;2022-12-18T04:30:15;-7.50;99.90
16267;DHT22;8241;48.786;9.250;2022-12-18T04:32:42;-7.50;99.90
16267;DHT22;8241;48.786;9.250;2022-12-18T04:35:09;-7.70;99.90
16267;DHT22;8241;48.786;9.250;2022-12-18T04:37:41;-7.70;99.90
16267;DHT22;8241;48.786;9.250;2022-12-18T04:40:13;-7.60;99.90
16267;DHT22;8241;48.786;9.250;2022-12-18T04:42:43;-7.60;99.90
16267;DHT22;8241;48.786;9.250;2022-12-18T04:45:10;-7.60;99.90
16267;DHT22;8241;48.786;9.250;2022-12-18T04:47:38;-7.60;99.90
16267;DHT22;8241;48.786;9.250;2022-12-18T04:50:06;-7.70;99.90
16267;DHT22;8241;48.786;9.250;2022-12-18T04:52:34;-7.70;99.90
16267;DHT22;8241;48.786;9.250;2022-12-18T04:55:02;-7.70;99.90
16267;DHT22;8241;48.786;9.250;2022-12-18T04:57:29;-7.70;99.90
16267;DHT22;8241;48.786;9.250;2022-12-18T04:59:56;-7.70;99.90
16267;DHT22;8241;48.786;9.250;2022-12-18T05:02:23;-7.80;99.90
16267;DHT22;8241;48.786;9.250;2022-12-18T05:04:52;-7.90;99.90
16267;DHT22;8241;48.786;9.250;2022-12-18T05:07:19;-7.90;99.90
16267;DHT22;8241;48.786;9.250;2022-12-18T05:09:45;-7.80;99.90
16267;DHT22;8241;48.786;9.250;2022-12-18T05:12:12;-7.60;99.90
16267;DHT22;8241;48.786;9.250;2022-12-18T05:14:39;-7.70;99.90
16267;DHT22;8241;48.786;9.250;2022-12-18T05:17:06;-7.80;99.90
16267;DHT22;8241;48.786;9.250;2022-12-18T05:19:33;-7.80;99.90
16267;DHT22;8241;48.786;9.250;2022-12-18T05:22:02;-8.00;99.90
16267;DHT22;8241;48.786;9.250;2022-12-18T05:24:29;-7.90;99.90
16267;DHT22;8241;48.786;9.250;2022-12-18T05:26:56;-7.90;99.90
16267;DHT22;8241;48.786;9.250;2022-12-18T05:29:23;-8.00;99.90
16267;DHT22;8241;48.786;9.250;2022-12-18T05:31:50;-8.10;99.90
16267;DHT22;8241;48.786;9.250;2022-12-18T05:34:17;-8.10;99.90
16267;DHT22;8241;48.786;9.250;2022-12-18T05:36:44;-8.10;99.90
16267;DHT22;8241;48.786;9.250;2022-12-18T05:39:13;-8.10;99.90
16267;DHT22;8241;48.786;9.250;2022-12-18T05:41:40;-8.00;99.90
16267;DHT22;8241;48.786;9.250;2022-12-18T05:44:07;-8.00;99.90
16267;DHT22;8241;48.786;9.250;2022-12-18T05:46:36;-8.20;99.90
16267;DHT22;8241;48.786;9.250;2022-12-18T05:49:03;-8.10;99.90
16267;DHT22;8241;48.786;9.250;2022-12-18T05:51:30;-8.00;99.90
16267;DHT22;8241;48.786;9.250;2022-12-18T05:53:57;-7.90;99.90
16267;DHT22;8241;48.786;9.250;2022-12-18T05:56:25;-7.90;99.90
16267;DHT22;8241;48.786;9.250;2022-12-18T05:58:53;-8.00;99.90
16267;DHT22;8241;48.786;9.250;2022-12-18T06:01:23;-7.90;99.90
16267;DHT22;8241;48.786;9.250;2022-12-18T06:03:51;-7.90;99.90
16267;DHT22;8241;48.786;9.250;2022-12-18T06:06:21;-7.80;99.90
16267;DHT22;8241;48.786;9.250;2022-12-18T06:08:49;-7.80;99.90
16267;DHT22;8241;48.786;9.250;2022-12-18T06:11:19;-7.70;99.90
16267;DHT22;8241;48.786;9.250;2022-12-18T06:13:49;-7.70;99.90
16267;DHT22;8241;48.786;9.250;2022-12-18T06:16:16;-7.90;99.90
16267;DHT22;8241;48.786;9.250;2022-12-18T06:18:48;-7.80;99.90
16267;DHT22;8241;48.786;9.250;2022-12-18T06:21:16;-8.00;99.90
16267;DHT22;8241;48.786;9.250;2022-12-18T06:23:43;-8.10;99.90
16267;DHT22;8241;48.786;9.250;2022-12-18T06:26:11;-8.20;99.90
16267;DHT22;8241;48.786;9.250;2022-12-18T06:28:38;-8.30;99.90
16267;DHT22;8241;48.786;9.250;2022-12-18T06:31:08;-8.30;99.90
16267;DHT22;8241;48.786;9.250;2022-12-18T06:33:36;-8.30;99.90
16267;DHT22;8241;48.786;9.250;2022-12-18T06:36:04;-8.40;99.90
16267;DHT22;8241;48.786;9.250;2022-12-18T06:38:34;-8.50;99.90
16267;DHT22;8241;48.786;9.250;2022-12-18T06:41:06;-8.50;99.90
16267;DHT22;8241;48.786;9.250;2022-12-18T06:43:34;-8.50;99.90
16267;DHT22;8241;48.786;9.250;2022-12-18T06:46:03;-8.50;99.90
16267;DHT22;8241;48.786;9.250;2022-12-18T06:48:32;-8.60;99.90
16267;DHT22;8241;48.786;9.250;2022-12-18T06:50:59;-8.60;99.90
16267;DHT22;8241;48.786;9.250;2022-12-18T06:53:27;-8.70;99.90
16267;DHT22;8241;48.786;9.250;2022-12-18T06:56:00;-8.60;99.90
16267;DHT22;8241;48.786;9.250;2022-12-18T06:58:28;-8.50;99.90
16267;DHT22;8241;48.786;9.250;2022-12-18T07:00:59;-8.50;99.90
16267;DHT22;8241;48.786;9.250;2022-12-18T07:03:28;-8.50;99.90
16267;DHT22;8241;48.786;9.250;2022-12-18T07:05:56;-8.30;99.90
16267;DHT22;8241;48.786;9.250;2022-12-18T07:08:23;-8.40;99.90
16267;DHT22;8241;48.786;9.250;2022-12-18T07:10:50;-8.40;99.90
16267;DHT22;8241;48.786;9.250;2022-12-18T07:13:20;-8.30;99.90
16267;DHT22;8241;48.786;9.250;2022-12-18T07:15:47;-8.10;99.90
16267;DHT22;8241;48.786;9.250;2022-12-18T07:18:14;-8.20;99.90
16267;DHT22;8241;48.786;9.250;2022-12-18T07:20:41;-8.40;99.90
16267;DHT22;8241;48.786;9.250;2022-12-18T07:23:10;-8.40;99.90
16267;DHT22;8241;48.786;9.250;2022-12-18T07:25:38;-8.40;99.90
16267;DHT22;8241;48.786;9.250;2022-12-18T07:28:05;-8.50;99.90
16267;DHT22;8241;48.786;9.250;2022-12-18T07:30:32;-8.50;99.90
16267;DHT22;8241;48.786;9.250;2022-12-18T07:32:59;-8.50;99.90
16267;DHT22;8241;48.786;9.250;2022-12-18T07:35:26;-8.60;99.90
16267;DHT22;8241;48.786;9.250;2022-12-18T07:37:53;-8.60;99.90
16267;DHT22;8241;48.786;9.250;2022-12-18T07:40:21;-8.70;99.90
16267;DHT22;8241;48.786;9.250;2022-12-18T07:42:48;-8.70;99.90
16267;DHT22;8241;48.786;9.250;2022-12-18T07:45:16;-8.70;99.90
16267;DHT22;8241;48.786;9.250;2022-12-18T07:47:43;-8.60;99.90
16267;DHT22;8241;48.786;9.250;2022-12-18T07:50:10;-8.50;99.90
16267;DHT22;8241;48.786;9.250;2022-12-18T07:52:37;-8.60;99.90
16267;DHT22;8241;48.786;9.250;2022-12-18T07:55:04;-8.60;99.90
16267;DHT22;8241;48.786;9.250;2022-12-18T07:57:33;-8.50;99.90
16267;DHT22;8241;48.786;9.250;2022-12-18T08:00:00;-8.50;99.90
16267;DHT22;8241;48.786;9.250;2022-12-18T08:02:30;-8.50;99.90
16267;DHT22;8241;48.786;9.250;2022-12-18T08:04:57;-8.50;99.90
16267;DHT22;8241;48.786;9.250;2022-12-18T08:07:24;-8.50;99.90
16267;DHT22;8241;48.786;9.250;2022-12-18T08:09:51;-8.40;99.90
16267;DHT22;8241;48.786;9.250;2022-12-18T08:12:18;-8.40;99.90
16267;DHT22;8241;48.786;9.250;2022-12-18T08:14:47;-8.40;99.90
16267;DHT22;8241;48.786;9.250;2022-12-18T08:17:14;-8.40;99.90
16267;DHT22;8241;48.786;9.250;2022-12-18T08:19:41;-8.40;99.90
16267;DHT22;8241;48.786;9.250;2022-12-18T08:22:08;-8.30;99.90
16267;DHT22;8241;48.786;9.250;2022-12-18T08:24:35;-8.30;99.90
16267;DHT22;8241;48.786;9.250;2022-12-18T08:27:03;-8.20;99.90
16267;DHT22;8241;48.786;9.250;2022-12-18T08:29:29;-8.20;99.90
16267;DHT22;8241;48.786;9.250;2022-12-18T08:31:58;-8.10;99.90
16267;DHT22;8241;48.786;9.250;2022-12-18T08:34:26;-8.20;99.90
16267;DHT22;8241;48.786;9.250;2022-12-18T08:36:53;-8.20;99.90
16267;DHT22;8241;48.786;9.250;2022-12-18T08:39:20;-8.10;99.90
16267;DHT22;8241;48.786;9.250;2022-12-18T08:41:47;-8.10;99.90
16267;DHT22;8241;48.786;9.250;2022-12-18T08:44:34;-8.00;99.90
16267;DHT22;8241;48.786;9.250;2022-12-18T08:47:05;-8.30;99.90
16267;DHT22;8241;48.786;9.250;2022-12-18T08:49:32;-8.30;99.90
16267;DHT22;8241;48.786;9.250;2022-12-18T08:51:59;-8.20;99.90
16267;DHT22;8241;48.786;9.250;2022-12-18T08:54:29;-8.20;99.90
16267;DHT22;8241;48.786;9.250;2022-12-18T08:56:56;-8.20;99.90
16267;DHT22;8241;48.786;9.250;2022-12-18T08:59:23;-8.00;99.90
16267;DHT22;8241;48.786;9.250;2022-12-18T09:01:53;-7.90;99.90
16267;DHT22;8241;48.786;9.250;2022-12-18T09:04:22;-7.90;99.90
16267;DHT22;8241;48.786;9.250;2022-12-18T09:06:50;-7.80;99.90
16267;DHT22;8241;48.786;9.250;2022-12-18T09:09:17;-7.70;99.90
16267;DHT22;8241;48.786;9.250;2022-12-18T09:11:44;-7.70;99.90
16267;DHT22;8241;48.786;9.250;2022-12-18T09:14:11;-7.60;99.90
16267;DHT22;8241;48.786;9.250;2022-12-18T09:16:38;-7.50;99.90
16267;DHT22;8241;48.786;9.250;2022-12-18T09:19:05;-7.40;99.90
16267;DHT22;8241;48.786;9.250;2022-12-18T09:21:35;-7.40;99.90
16267;DHT22;8241;48.786;9.250;2022-12-18T09:24:04;-7.40;99.90
16267;DHT22;8241;48.786;9.250;2022-12-18T09:26:31;-7.30;99.90
16267;DHT22;8241;48.786;9.250;2022-12-18T09:28:58;-7.10;99.90
16267;DHT22;8241;48.786;9.250;2022-12-18T09:31:25;-7.10;99.90
16267;DHT22;8241;48.786;9.250;2022-12-18T09:33:54;-6.90;99.90
16267;DHT22;8241;48.786;9.250;2022-12-18T09:36:21;-6.90;99.90
16267;DHT22;8241;48.786;9.250;2022-12-18T09:38:50;-6.80;99.90
16267;DHT22;8241;48.786;9.250;2022-12-18T09:41:32;-6.80;99.90
16267;DHT22;8241;48.786;9.250;2022-12-18T09:44:02;-6.80;99.90
16267;DHT22;8241;48.786;9.250;2022-12-18T09:46:35;-6.60;99.90
16267;DHT22;8241;48.786;9.250;2022-12-18T09:49:13;-6.50;99.90
16267;DHT22;8241;48.786;9.250;2022-12-18T09:51:43;-6.40;99.90
16267;DHT22;8241;48.786;9.250;2022-12-18T09:54:18;-6.50;99.90
16267;DHT22;8241;48.786;9.250;2022-12-18T09:56:47;-6.40;99.90
16267;DHT22;8241;48.786;9.250;2022-12-18T09:59:21;-6.40;99.90
16267;DHT22;8241;48.786;9.250;2022-12-18T10:01:49;-6.30;99.90
16267;DHT22;8241;48.786;9.250;2022-12-18T10:04:16;-6.10;99.90
16267;DHT22;8241;48.786;9.250;2022-12-18T10:06:48;-6.00;99.90
16267;DHT22;8241;48.786;9.250;2022-12-18T10:09:27;-6.00;99.90
16267;DHT22;8241;48.786;9.250;2022-12-18T10:12:02;-6.00;99.90
16267;DHT22;8241;48.786;9.250;2022-12-18T10:14:36;-5.80;99.90
16267;DHT22;8241;48.786;9.250;2022-12-18T10:17:13;-5.70;99.90
16267;DHT22;8241;48.786;9.250;2022-12-18T10:19:45;-5.70;99.90
16267;DHT22;8241;48.786;9.250;2022-12-18T10:25:21;-5.30;99.90
16267;DHT22;8241;48.786;9.250;2022-12-18T10:27:52;-5.10;99.90
16267;DHT22;8241;48.786;9.250;2022-12-18T10:30:22;-4.80;99.90
16267;DHT22;8241;48.786;9.250;2022-12-18T10:32:49;-4.70;99.90
16267;DHT22;8241;48.786;9.250;2022-12-18T10:35:19;-4.50;99.90
16267;DHT22;8241;48.786;9.250;2022-12-18T10:38:03;-4.40;99.90
16267;DHT22;8241;48.786;9.250;2022-12-18T10:40:32;-4.40;99.90
16267;DHT22;8241;48.786;9.250;2022-12-18T10:43:12;-4.30;99.90
16267;DHT22;8241;48.786;9.250;2022-12-18T10:45:40;-4.20;99.90
16267;DHT22;8241;48.786;9.250;2022-12-18T10:48:18;-4.20;99.90
16267;DHT22;8241;48.786;9.250;2022-12-18T10:50:48;-4.10;99.90
16267;DHT22;8241;48.786;9.250;2022-12-18T10:53:21;-3.90;99.90
16267;DHT22;8241;48.786;9.250;2022-12-18T10:55:52;-3.90;99.90
16267;DHT22;8241;48.786;9.250;2022-12-18T10:58:25;-3.90;99.90
16267;DHT22;8241;48.786;9.250;2022-12-18T11:01:07;-3.80;99.90
16267;DHT22;8241;48.786;9.250;2022-12-18T11:03:36;-3.60;99.90
16267;DHT22;8241;48.786;9.250;2022-12-18T11:06:09;-3.60;99.90
16267;DHT22;8241;48.786;9.250;2022-12-18T11:08:36;-3.60;99.90
16267;DHT22;8241;48.786;9.250;2022-12-18T11:11:14;-3.50;99.90
16267;DHT22;8241;48.786;9.250;2022-12-18T11:13:57;-3.00;99.90
16267;DHT22;8241;48.786;9.250;2022-12-18T11:16:25;-3.10;99.90
16267;DHT22;8241;48.786;9.250;2022-12-18T11:18:52;-3.20;99.90
16267;DHT22;8241;48.786;9.250;2022-12-18T11:21:20;-3.20;99.90
16267;DHT22;8241;48.786;9.250;2022-12-18T11:23:49;-3.10;99.90
16267;DHT22;8241;48.786;9.250;2022-12-18T11:26:18;-3.00;99.90
16267;DHT22;8241;48.786;9.250;2022-12-18T11:28:47;-3.00;99.90
16267;DHT22;8241;48.786;9.250;2022-12-18T11:31:24;-2.70;99.90
16267;DHT22;8241;48.786;9.250;2022-12-18T11:34:00;-2.60;99.90
16267;DHT22;8241;48.786;9.250;2022-12-18T11:36:32;-2.70;99.90
16267;DHT22;8241;48.786;9.250;2022-12-18T11:39:07;-2.50;99.90
16267;DHT22;8241;48.786;9.250;2022-12-18T11:41:43;-2.30;99.90
16267;DHT22;8241;48.786;9.250;2022-12-18T11:44:36;-2.20;99.90
16267;DHT22;8241;48.786;9.250;2022-12-18T11:47:11;-2.40;99.90
16267;DHT22;8241;48.786;9.250;2022-12-18T11:49:41;-2.30;99.90
16267;DHT22;8241;48.786;9.250;2022-12-18T11:52:16;-2.20;99.90
16267;DHT22;8241;48.786;9.250;2022-12-18T11:54:45;-1.80;99.90
16267;DHT22;8241;48.786;9.250;2022-12-18T11:57:23;-1.90;99.90
16267;DHT22;8241;48.786;9.250;2022-12-18T11:59:58;-2.10;99.90
16267;DHT22;8241;48.786;9.250;2022-12-18T12:02:42;-2.30;99.90
16267;DHT22;8241;48.786;9.250;2022-12-18T12:05:41;-2.10;99.90
16267;DHT22;8241;48.786;9.250;2022-12-18T12:08:16;-1.90;99.90
16267;DHT22;8241;48.786;9.250;2022-12-18T12:10:57;-2.00;99.90
16267;DHT22;8241;48.786;9.250;2022-12-18T12:13:38;-2.10;99.90
16267;DHT22;8241;48.786;9.250;2022-12-18T12:16:15;-2.20;99.90
16267;DHT22;8241;48.786;9.250;2022-12-18T12:18:59;-2.10;99.90
16267;DHT22;8241;48.786;9.250;2022-12-18T12:21:35;-1.90;99.90
16267;DHT22;8241;48.786;9.250;2022-12-18T12:24:21;-1.70;99.90
16267;DHT22;8241;48.786;9.250;2022-12-18T12:26:57;-1.60;99.90
16267;DHT22;8241;48.786;9.250;2022-12-18T12:29:43;-1.30;99.90
16267;DHT22;8241;48.786;9.250;2022-12-18T12:32:22;-1.40;99.90
16267;DHT22;8241;48.786;9.250;2022-12-18T12:35:05;-1.50;99.90
16267;DHT22;8241;48.786;9.250;2022-12-18T12:37:42;-1.70;99.90
16267;DHT22;8241;48.786;9.250;2022-12-18T12:40:16;-1.70;99.90
16267;DHT22;8241;48.786;9.250;2022-12-18T12:42:47;-1.70;99.90
16267;DHT22;8241;48.786;9.250;2022-12-18T12:45:38;-1.70;99.90
16267;DHT22;8241;48.786;9.250;2022-12-18T12:48:16;-1.70;99.90
16267;DHT22;8241;48.786;9.250;2022-12-18T12:50:44;-1.50;99.90
16267;DHT22;8241;48.786;9.250;2022-12-18T12:53:30;-1.60;99.90
16267;DHT22;8241;48.786;9.250;2022-12-18T12:55:58;-1.30;99.90
16267;DHT22;8241;48.786;9.250;2022-12-18T12:58:31;-1.50;99.90
16267;DHT22;8241;48.786;9.250;2022-12-18T13:01:09;-1.50;99.90
16267;DHT22;8241;48.786;9.250;2022-12-18T13:03:46;-1.50;99.90
16267;DHT22;8241;48.786;9.250;2022-12-18T13:06:23;-1.20;99.90
16267;DHT22;8241;48.786;9.250;2022-12-18T13:08:54;-1.30;99.90
16267;DHT22;8241;48.786;9.250;2022-12-18T13:11:35;-1.40;99.90
16267;DHT22;8241;48.786;9.250;2022-12-18T13:14:27;-1.20;99.90
16267;DHT22;8241;48.786;9.250;2022-12-18T13:17:15;-1.30;99.90
16267;DHT22;8241;48.786;9.250;2022-12-18T13:19:42;-1.10;99.90
16267;DHT22;8241;48.786;9.250;2022-12-18T13:22:21;-1.20;99.90
16267;DHT22;8241;48.786;9.250;2022-12-18T13:24:49;-1.20;99.90
16267;DHT22;8241;48.786;9.250;2022-12-18T13:27:52;-1.30;99.90
16267;DHT22;8241;48.786;9.250;2022-12-18T13:30:50;-1.30;99.90
16267;DHT22;8241;48.786;9.250;2022-12-18T13:33:49;-1.20;99.90
16267;DHT22;8241;48.786;9.250;2022-12-18T13:36:28;-1.20;99.90
16267;DHT22;8241;48.786;9.250;2022-12-18T13:39:24;-1.20;99.90
16267;DHT22;8241;48.786;9.250;2022-12-18T13:41:53;-1.10;99.90
16267;DHT22;8241;48.786;9.250;2022-12-18T13:44:28;-1.20;99.90
16267;DHT22;8241;48.786;9.250;2022-12-18T13:46:57;-1.30;99.90
16267;DHT22;8241;48.786;9.250;2022-12-18T13:49:30;-1.30;99.90
16267;DHT22;8241;48.786;9.250;2022-12-18T13:51:58;-1.20;99.90
16267;DHT22;8241;48.786;9.250;2022-12-18T13:54:30;-1.20;99.90
16267;DHT22;8241;48.786;9.250;2022-12-18T13:56:59;-1.20;99.90
16267;DHT22;8241;48.786;9.250;2022-12-18T13:59:33;-1.20;99.90
16267;DHT22;8241;48.786;9.250;2022-12-18T14:02:11;-0.90;99.90
16267;DHT22;8241;48.786;9.250;2022-12-18T14:04:40;-0.70;99.90
16267;DHT22;8241;48.786;9.250;2022-12-18T14:07:12;-0.90;99.90
16267;DHT22;8241;48.786;9.250;2022-12-18T14:09:42;-1.00;99.90
16267;DHT22;8241;48.786;9.250;2022-12-18T14:12:15;-1.10;99.90
16267;DHT22;8241;48.786;9.250;2022-12-18T14:15:00;-1.00;99.90
16267;DHT22;8241;48.786;9.250;2022-12-18T14:17:27;-1.10;99.90
16267;DHT22;8241;48.786;9.250;2022-12-18T14:19:57;-1.20;99.90
16267;DHT22;8241;48.786;9.250;2022-12-18T14:22:25;-1.20;99.90
16267;DHT22;8241;48.786;9.250;2022-12-18T14:25:22;-1.10;99.90
16267;DHT22;8241;48.786;9.250;2022-12-18T14:27:51;-0.80;99.90
16267;DHT22;8241;48.786;9.250;2022-12-18T14:30:27;-0.80;99.90
16267;DHT22;8241;48.786;9.250;2022-12-18T14:33:02;-0.80;99.90
16267;DHT22;8241;48.786;9.250;2022-12-18T14:35:31;-0.80;99.90
16267;DHT22;8241;48.786;9.250;2022-12-18T14:38:20;-0.80;99.90
16267;DHT22;8241;48.786;9.250;2022-12-18T14:40:51;-0.70;99.90
16267;DHT22;8241;48.786;9.250;2022-12-18T14:43:19;-0.70;99.90
16267;DHT22;8241;48.786;9.250;2022-12-18T14:45:46;-0.80;99.90
16267;DHT22;8241;48.786;9.250;2022-12-18T14:48:17;-0.80;99.90
16267;DHT22;8241;48.786;9.250;2022-12-18T14:50:55;-0.80;99.90
16267;DHT22;8241;48.786;9.250;2022-12-18T14:53:32;-0.90;99.90
16267;DHT22;8241;48.786;9.250;2022-12-18T14:56:00;-1.10;99.90
16267;DHT22;8241;48.786;9.250;2022-12-18T14:58:28;-1.10;99.90
16267;DHT22;8241;48.786;9.250;2022-12-18T15:00:55;-1.10;99.90
16267;DHT22;8241;48.786;9.250;2022-12-18T15:03:22;-1.00;99.90
16267;DHT22;8241;48.786;9.250;2022-12-18T15:05:50;-1.20;99.90
16267;DHT22;8241;48.786;9.250;2022-12-18T15:08:48;-1.20;99.90
16267;DHT22;8241;48.786;9.250;2022-12-18T15:11:34;-1.10;99.90
16267;DHT22;8241;48.786;9.250;2022-12-18T15:14:44;-1.10;99.90
16267;DHT22;8241;48.786;9.250;2022-12-18T15:17:27;-1.10;99.90
16267;DHT22;8241;48.786;9.250;2022-12-18T15:19:59;-1.10;99.90
16267;DHT22;8241;48.786;9.250;2022-12-18T15:23:11;-1.20;99.90
16267;DHT22;8241;48.786;9.250;2022-12-18T15:26:07;-1.50;99.90
16267;DHT22;8241;48.786;9.250;2022-12-18T15:29:17;-1.60;99.90
16267;DHT22;8241;48.786;9.250;2022-12-18T15:32:02;-1.40;99.90
16267;DHT22;8241;48.786;9.250;2022-12-18T15:34:36;-1.40;99.90
16267;DHT22;8241;48.786;9.250;2022-12-18T15:37:07;-1.30;99.90
16267;DHT22;8241;48.786;9.250;2022-12-18T15:39:49;-1.30;99.90
16267;DHT22;8241;48.786;9.250;2022-12-18T15:42:19;-1.50;99.90
16267;DHT22;8241;48.786;9.250;2022-12-18T15:45:07;-1.50;99.90
16267;DHT22;8241;48.786;9.250;2022-12-18T15:47:35;-1.50;99.90
16267;DHT22;8241;48.786;9.250;2022-12-18T15:50:13;-1.50;99.90
16267;DHT22;8241;48.786;9.250;2022-12-18T15:52:44;-1.80;99.90
16267;DHT22;8241;48.786;9.250;2022-12-18T15:55:25;-1.80;99.90
16267;DHT22;8241;48.786;9.250;2022-12-18T15:58:25;-1.80;99.90
16267;DHT22;8241;48.786;9.250;2022-12-18T16:00:53;-1.80;99.90
16267;DHT22;8241;48.786;9.250;2022-12-18T16:03:29;-1.70;99.90
16267;DHT22;8241;48.786;9.250;2022-12-18T16:06:03;-1.60;99.90
16267;DHT22;8241;48.786;9.250;2022-12-18T16:08:37;-1.60;99.90
16267;DHT22;8241;48.786;9.250;2022-12-18T16:11:27;-1.60;99.90
16267;DHT22;8241;48.786;9.250;2022-12-18T16:14:28;-1.70;99.90
16267;DHT22;8241;48.786;9.250;2022-12-18T16:16:59;-1.80;99.90
16267;DHT22;8241;48.786;9.250;2022-12-18T16:19:30;-1.80;99.90
16267;DHT22;8241;48.786;9.250;2022-12-18T16:22:01;-1.70;99.90
16267;DHT22;8241;48.786;9.250;2022-12-18T16:24:32;-1.90;99.90